Latest Weather Observations for Cape Flattery

IDQ60801

Issued at 1:32 pm EST Wednesday 22 February 2017 (issued every 30 minutes, with the page automatically refreshed every 10 minutes)

About weather observations | Map of weather stations | Latest weather observations for QLD | Other Formats
Station Details ID: 031213 Name: CAPE FLATTERY Lat: -14.97 Lon: 145.31 Height: 18.5 m
Data from the previous 72 hours. | See also: Recent months at Cape Flattery
Date/Time
EST
Temp
°C
App
Temp
°C
Dew
Point
°C
Rel
Hum
%
Delta-T
°C
Wind Press
QNH
hPa
Press
MSL
hPa
Rain since
9am
mm
Dir  Spd
km/h
Gust
km/h
Spd
kts
Gust
kts
22/01:00pm 30.7 32.7 23.9 67 4.7 SE 20 28 11 15 1011.4 1011.3 0.2
22/12:30pm 31.7 34.2 24.8 67 4.9 SE 20 28 11 15 1011.7 1011.6 0.2
22/12:00pm 30.5 32.7 23.9 68 4.6 SE 19 28 10 15 1012.2 1012.1 0.2
22/11:30am 30.5 33.2 23.4 66 4.9 SE 15 20 8 11 1012.6 1012.5 0.2
22/11:00am 31.3 34.3 24.7 68 4.6 SE 17 20 9 11 1012.7 1012.6 0.2
22/10:30am 31.1 34.2 25.7 73 3.8 SSE 20 28 11 15 1013.0 1012.9 0.2
22/10:00am 30.4 32.7 24.1 69 4.4 SSE 19 24 10 13 1013.2 1013.1 0.2
22/09:30am 30.3 33.2 24.4 70 4.1 SE 17 22 9 12 1013.1 1013.0 0.2
22/09:00am 30.0 32.4 23.7 69 4.4 SSE 17 20 9 11 1013.1 1013.0 0.8
22/08:30am 29.4 32.9 24.9 77 3.2 SSE 15 20 8 11 1012.9 1012.8 0.8
22/08:00am 28.3 31.7 25.3 84 2.1 SSE 17 22 9 12 1012.6 1012.5 0.8
22/07:30am 27.5 31.9 25.7 90 1.3 SSE 13 17 7 9 1012.2 1012.1 0.8
22/07:00am 26.6 31.3 25.6 94 0.7 SSE 11 15 6 8 1012.0 1011.9 0.8
22/06:30am 26.4 30.6 25.4 94 0.7 SSE 13 19 7 10 1011.7 1011.6 0.8
22/06:00am 25.9 30.2 24.9 94 0.7 S 11 13 6 7 1011.8 1011.7 0.8
22/05:30am 25.9 30.6 24.9 94 0.7 ESE 9 11 5 6 1011.5 1011.4 0.8
22/05:00am 25.6 30.0 24.4 93 0.8 E 9 11 5 6 1011.1 1011.0 0.8
22/04:30am 25.9 30.2 24.3 91 1.1 ENE 9 11 5 6 1010.8 1010.7 0.8
22/04:00am 26.3 30.9 24.7 91 1.1 ESE 9 15 5 8 1010.8 1010.7 0.8
22/03:30am 26.5 31.3 25.1 92 1.0 E 9 13 5 7 1010.7 1010.6 0.8
22/03:00am 26.4 30.6 24.8 91 1.1 E 11 15 6 8 1011.0 1010.9 0.8
22/02:30am 26.6 30.7 25.2 92 1.0 E 13 19 7 10 1011.0 1010.9 0.8
22/02:00am 25.9 30.5 24.7 93 0.8 E 9 11 5 6 1011.5 1011.4 0.8
22/01:30am 26.1 30.7 24.7 92 1.0 ENE 9 11 5 6 1011.8 1011.7 0.8
22/01:00am 26.2 30.8 24.8 92 1.0 NE 9 11 5 6 1012.2 1012.1 0.8
22/12:30am 26.5 31.1 25.3 93 0.8 ENE 11 13 6 7 1012.5 1012.4 0.8
22/12:00am 26.6 32.2 25.4 93 0.8 E 6 9 3 5 1013.0 1012.9 0.8
 
Date/Time
EST
Temp
°C
App
Temp
°C
Dew
Point
°C
Rel
Hum
%
Delta-T
°C
Wind Press
QNH
hPa
Press
MSL
hPa
Rain since
9am
mm
Dir  Spd
km/h
Gust
km/h
Spd
kts
Gust
kts
21/11:30pm 27.0 33.1 25.6 92 1.0 SE 4 7 2 4 1013.4 1013.3 0.6
21/11:00pm 26.7 32.6 25.3 92 1.0 ESE 4 6 2 3 1013.7 1013.6 0.2
21/10:30pm 26.7 32.0 25.3 92 1.0 ESE 7 9 4 5 1013.8 1013.7 0.2
21/10:00pm 26.3 31.4 24.9 92 1.0 ESE 7 7 4 4 1013.5 1013.4 0.2
21/09:30pm 26.2 31.1 24.6 91 1.1 ESE 7 7 4 4 1013.1 1013.0 0.2
21/09:00pm 26.3 31.6 24.3 89 1.4 ESE 4 6 2 3 1012.6 1012.5 0.2
21/08:30pm 26.9 31.3 24.5 87 1.7 ENE 9 11 5 6 1012.2 1012.1 0.2
21/08:00pm 26.7 30.6 24.2 86 1.7 ENE 11 11 6 6 1012.0 1011.9 0.2
21/07:30pm 26.8 30.8 23.7 83 2.1 ENE 9 11 5 6 1011.7 1011.6 0.2
21/07:00pm 27.7 32.5 24.1 81 2.5 NNE 6 7 3 4 1011.7 1011.6 0.2
21/06:30pm 28.3 32.9 24.1 78 2.9 NE 7 11 4 6 1011.1 1011.0 0.2
21/06:00pm 29.0 33.2 24.1 75 3.4 N 9 15 5 8 1010.8 1010.7 0.2
21/05:30pm 29.8 33.4 24.4 73 3.8 NNW 13 17 7 9 1010.8 1010.7 0.2
21/05:00pm 29.7 33.1 24.6 74 3.6 N 15 20 8 11 1010.6 1010.5 0.2
21/04:30pm 29.9 33.0 24.1 71 4.0 NNW 15 20 8 11 1010.5 1010.4 0.2
21/04:00pm 30.4 33.2 25.0 73 3.8 NNW 19 24 10 13 1010.1 1010.0 0.2
21/03:30pm 30.0 33.0 24.6 73 3.8 NNW 17 20 9 11 1010.2 1010.1 0.2
21/03:00pm 30.6 35.2 25.9 76 3.3 NW 13 17 7 9 1010.4 1010.3 0.0
21/02:30pm 29.0 33.7 25.6 82 2.4 NNW 11 15 6 8 1010.6 1010.5 0.0
21/02:00pm 28.2 33.1 25.2 84 2.1 NNW 9 11 5 6 1010.8 1010.7 0.0
21/01:30pm 28.5 31.7 24.9 81 2.5 NW 17 26 9 14 1011.4 1011.3 0.0
21/01:00pm 29.8 30.9 24.9 75 3.4 NNW 28 44 15 24 1011.5 1011.4 0.0
21/12:58pm 29.9 31.7 24.8 74 3.6 NNW 24 44 13 24 1011.4 1011.3 0.0
21/12:30pm 30.9 34.0 24.8 70 4.3 N 17 22 9 12 1011.9 1011.8 0.0
21/12:00pm 31.0 35.0 25.6 73 3.8 N 15 20 8 11 1012.4 1012.3 0.0
21/11:30am 30.6 34.0 25.2 73 3.8 N 17 20 9 11 1012.8 1012.7 0.0
21/11:00am 30.2 34.4 25.3 75 3.5 N 13 19 7 10 1013.1 1013.0 0.0
21/10:30am 29.8 34.9 25.5 78 3.0 NNW 9 13 5 7 1013.2 1013.1 0.0
21/10:00am 29.9 35.0 26.1 80 2.7 NNW 11 15 6 8 1013.2 1013.1 0.0
21/09:30am 29.5 34.7 25.7 80 2.7 N 9 11 5 6 1012.9 1012.8 0.0
21/09:00am 29.0 34.3 25.8 83 2.3 NW 9 11 5 6 1012.7 1012.6 4.8
21/08:30am 28.8 35.5 26.0 85 2.0 WNW 2 7 1 4 1012.1 1012.0 4.8
21/08:00am 27.5 34.7 26.1 92 1.0 CALM 0 0 0 0 1012.1 1012.0 4.8
21/07:30am 26.3 33.0 25.4 95 0.6 CALM 0 0 0 0 1012.0 1011.9 4.8
21/07:00am 25.5 31.7 24.6 95 0.6 CALM 0 0 0 0 1011.5 1011.4 4.8
21/06:30am 25.3 31.4 24.4 95 0.6 CALM 0 6 0 3 1010.9 1010.8 4.8
21/06:00am 25.0 29.8 24.1 95 0.6 SSE 6 7 3 4 1010.5 1010.4 4.8
21/05:30am 25.1 31.1 24.2 95 0.6 CALM 0 0 0 0 1010.3 1010.2 4.8
21/05:00am 25.2 31.2 24.2 94 0.7 CALM 0 0 0 0 1010.1 1010.0 4.8
21/04:30am 25.4 30.7 24.4 94 0.7 SW 4 6 2 3 1010.0 1009.9 4.8
21/04:00am 25.2 31.0 24.0 93 0.8 CALM 0 0 0 0 1009.7 1009.6 4.8
21/03:30am 25.3 31.1 23.9 92 1.0 CALM 0 0 0 0 1009.5 1009.4 4.8
21/03:00am 25.8 31.8 24.2 91 1.1 CALM 0 6 0 3 1009.5 1009.4 4.8
21/02:30am 26.1 30.2 24.5 91 1.1 ENE 11 13 6 7 1009.6 1009.5 4.8
21/02:00am 26.5 30.7 24.7 90 1.3 NE 11 15 6 8 1009.8 1009.7 4.8
21/01:30am 26.3 30.4 24.5 90 1.2 NE 11 15 6 8 1010.2 1010.1 4.8
21/01:00am 26.3 30.6 24.9 92 1.0 ENE 11 15 6 8 1010.8 1010.7 4.8
21/12:30am 26.4 30.4 25.0 92 1.0 ENE 13 15 7 8 1011.1 1011.0 4.8
21/12:00am 26.3 30.7 25.1 93 0.8 NE 11 13 6 7 1011.7 1011.6 4.8
 
Date/Time
EST
Temp
°C
App
Temp
°C
Dew
Point
°C
Rel
Hum
%
Delta-T
°C
Wind Press
QNH
hPa
Press
MSL
hPa
Rain since
9am
mm
Dir  Spd
km/h
Gust
km/h
Spd
kts
Gust
kts
20/11:30pm 26.0 29.7 24.6 92 1.0 E 13 15 7 8 1011.8 1011.7 4.8
20/11:00pm 26.0 30.2 24.8 93 0.8 ESE 11 15 6 8 1012.1 1012.0 4.8
20/10:30pm 25.9 30.7 24.1 90 1.2 E 6 9 3 5 1012.2 1012.1 4.8
20/10:00pm 26.1 31.1 24.5 91 1.1 ENE 6 17 3 9 1012.1 1012.0 4.8
20/09:30pm 26.3 32.7 24.9 92 1.0 CALM 0 0 0 0 1012.0 1011.9 4.8
20/09:00pm 26.3 31.8 24.7 91 1.1 ESE 4 7 2 4 1011.8 1011.7 4.8
20/08:30pm 27.1 31.8 25.5 91 1.1 NNW 11 17 6 9 1011.2 1011.1 4.8
20/08:00pm 26.2 30.9 25.0 93 0.8 NE 9 13 5 7 1010.6 1010.5 4.8
20/07:30pm 25.2 29.9 24.0 93 0.8 ENE 6 11 3 6 1010.4 1010.3 4.8
20/07:00pm 24.6 24.2 21.7 84 1.9 WNW 26 44 14 24 1010.3 1010.2 0.0
20/06:51pm 25.5 25.6 21.8 80 2.5 NW 24 44 13 24 1010.3 1010.2 0.0
20/06:30pm 28.3 30.8 23.2 74 3.5 NE 15 22 8 12 1009.7 1009.6 0.0
20/06:00pm 28.6 30.2 22.8 71 4.0 NNE 19 28 10 15 1009.0 1008.9 0.0
20/05:30pm 29.7 33.1 23.4 69 4.3 N 11 15 6 8 1008.0 1007.9 0.0
20/05:00pm 30.1 32.8 23.5 67 4.6 N 15 24 8 13 1008.1 1008.0 0.0
20/04:30pm 30.1 31.6 23.0 65 4.9 NNE 20 26 11 14 1007.9 1007.8 0.0
20/04:00pm 29.9 32.3 23.6 69 4.4 NNE 17 26 9 14 1008.0 1007.9 0.0
20/03:30pm 29.1 30.4 22.6 68 4.4 N 20 37 11 20 1008.0 1007.9 0.0
20/03:00pm 31.4 33.8 24.3 66 5.0 N 19 26 10 14 1007.8 1007.7 0.0
20/02:30pm 31.9 34.4 24.5 65 5.2 N 19 28 10 15 1008.2 1008.1 0.0
20/02:00pm 31.7 34.1 24.3 65 5.2 N 19 24 10 13 1008.3 1008.2 0.0
20/01:30pm 31.9 34.2 24.5 65 5.2 N 20 26 11 14 1008.4 1008.3 0.0
20/01:00pm 32.0 34.4 24.3 63 5.4 N 19 24 10 13 1009.1 1009.0 0.0
20/12:30pm 32.2 35.4 25.0 65 5.1 N 17 24 9 13 1009.6 1009.5 0.0
20/12:00pm 31.7 34.7 24.6 66 5.0 N 17 22 9 12 1010.1 1010.0 0.0
20/11:30am 31.2 33.5 24.1 66 4.9 N 19 24 10 13 1010.2 1010.1 0.0
20/11:00am 30.9 34.0 24.8 70 4.3 N 17 22 9 12 1010.3 1010.2 0.0
20/10:30am 30.8 34.5 25.2 72 4.0 N 15 20 8 11 1010.4 1010.3 0.0
20/10:00am 30.4 34.4 25.0 73 3.8 N 13 17 7 9 1010.4 1010.3 0.0
20/09:30am 30.0 35.1 25.5 77 3.2 NNW 9 13 5 7 1010.6 1010.5 0.0
20/09:00am 28.5 33.6 24.9 81 2.5 NNW 7 9 4 5 1010.5 1010.4 0.4
20/08:30am 28.2 33.9 25.0 83 2.2 NW 4 7 2 4 1010.3 1010.2 0.4
20/08:00am 26.8 32.8 24.3 86 1.7 CALM 0 0 0 0 1010.0 1009.9 0.4
20/07:30am 25.4 31.2 24.0 92 1.0 CALM 0 0 0 0 1009.7 1009.6 0.4
20/07:00am 24.5 29.2 23.3 93 0.8 NW 4 6 2 3 1009.3 1009.2 0.4
20/06:30am 23.6 28.5 22.4 93 0.8 CALM 0 0 0 0 1008.5 1008.4 0.4
20/06:00am 23.7 28.6 22.3 92 0.9 CALM 0 0 0 0 1008.1 1008.0 0.4
20/05:30am 23.9 29.0 22.7 93 0.8 CALM 0 0 0 0 1007.9 1007.8 0.4
20/05:00am 23.9 28.9 22.5 92 0.9 CALM 0 0 0 0 1008.0 1007.9 0.4
20/04:30am 24.1 28.4 22.7 92 0.9 NNW 4 6 2 3 1008.1 1008.0 0.4
20/04:00am 24.1 28.1 22.7 92 0.9 NNW 6 7 3 4 1008.1 1008.0 0.4
20/03:30am 24.2 29.1 23.0 93 0.8 ENE 2 7 1 4 1008.0 1007.9 0.4
20/03:00am 24.2 29.5 23.0 93 0.8 CALM 0 0 0 0 1008.3 1008.2 0.4
20/02:30am 24.3 29.6 23.1 93 0.8 CALM 0 0 0 0 1008.7 1008.6 0.4
20/02:00am 24.3 29.1 22.9 92 0.9 S 2 6 1 3 1008.8 1008.7 0.4
20/01:30am 24.4 28.5 23.0 92 0.9 SSW 6 9 3 5 1009.1 1009.0 0.4
20/01:00am 24.7 28.9 23.1 91 1.1 SSW 6 7 3 4 1009.6 1009.5 0.4
20/12:30am 25.0 29.2 23.1 89 1.3 SSW 6 9 3 5 1009.9 1009.8 0.4
20/12:00am 25.4 30.0 23.1 87 1.6 SW 4 7 2 4 1010.2 1010.1 0.4
 
Date/Time
EST
Temp
°C
App
Temp
°C
Dew
Point
°C
Rel
Hum
%
Delta-T
°C
Wind Press
QNH
hPa
Press
MSL
hPa
Rain since
9am
mm
Dir  Spd
km/h
Gust
km/h
Spd
kts
Gust
kts
19/11:30pm 25.8 30.6 23.5 87 1.6 SSW 4 7 2 4 1010.4 1010.3 0.4
19/11:00pm 26.0 30.7 24.0 89 1.4 ESE 6 7 3 4 1010.5 1010.4 0.4
19/10:30pm 25.6 30.2 23.8 90 1.2 E 6 7 3 4 1010.2 1010.1 0.4
19/10:00pm 25.9 30.6 23.9 89 1.4 SSE 6 9 3 5 1010.0 1009.9 0.4
19/09:30pm 26.3 31.4 24.0 87 1.6 W 4 7 2 4 1009.8 1009.7 0.4
19/09:00pm 26.4 30.7 23.7 85 1.9 NW 7 11 4 6 1009.6 1009.5 0.4
19/08:30pm 26.7 31.1 23.8 84 2.0 NNE 7 9 4 5 1009.1 1009.0 0.4
19/08:00pm 27.0 30.7 23.3 80 2.5 S 9 11 5 6 1008.9 1008.8 0.4
19/07:30pm 28.8 31.9 23.5 73 3.6 NW 13 19 7 10 1008.6 1008.5 0.4
19/07:00pm 29.3 31.6 23.5 71 4.0 NNW 17 22 9 12 1008.0 1007.9 0.4
19/06:30pm 29.5 31.6 23.7 71 4.0 NNW 19 26 10 14 1007.7 1007.6 0.4
19/06:00pm 29.8 31.6 24.2 72 3.9 NNW 22 30 12 16 1007.3 1007.2 0.4
19/05:30pm 30.0 32.3 24.4 72 3.9 NNW 20 30 11 16 1006.8 1006.7 0.4
19/05:00pm 30.1 32.3 24.3 71 4.0 NNW 20 28 11 15 1006.6 1006.5 0.4
19/04:30pm 30.0 32.2 24.9 74 3.6 N 22 30 12 16 1006.5 1006.4 0.4
19/04:00pm 29.9 32.4 24.8 74 3.6 N 20 28 11 15 1006.6 1006.5 0.4
19/03:30pm 30.9 33.7 25.3 72 4.0 NNW 20 28 11 15 1006.7 1006.6 0.2
19/03:00pm 30.5 34.1 26.2 78 3.1 N 19 26 10 14 1006.9 1006.8 0.2
19/02:30pm 28.8 32.4 25.6 83 2.3 N 17 22 9 12 1007.3 1007.2 0.2
19/02:00pm 31.5 34.4 25.1 69 4.5 N 19 24 10 13 1007.6 1007.5 0.0

Other Formats:

Comma delimited format used in spreadsheet applications
http://www.bom.gov.au/fwo/IDQ60801/IDQ60801.94188.axf

JavaScript Object Notation format (JSON) in row-major order
http://www.bom.gov.au/fwo/IDQ60801/IDQ60801.94188.json